Terminal Aerodrome Forecast
Issued by NWS Boise, ID

Home | Current Version | Previous Version | Text Only | Print | Product List | Glossary On
Versions: 1 2 3 4 5 6 7 8 9 10 11 12 13 14 15 16 17 18 19 20 21 22
000
FTUS45 KBOI 190104 AAA
TAFBNO
TAF AMD
KBNO 190104Z 1901/1924 04013KT P6SM -RA SCT025 OVC035
     FM190500 08008KT 5SM BR VCSH OVC025
     FM191500 18006KT 6SM -SHSN BR OVC025=

USA.gov is the U.S. government's official web portal to all federal, state and local government web resources and services.